Time;durP1;ratioP1;P1;durP2;ratioP2;P2;SDS_P1;SDS_P2;PMS_P1;PMS_P2;Temp;Humidity;BMP_temperature;BMP_pressure;BME280_temperature;BME280_humidity;BME280_pressure;Samples;Min_cycle;Max_cycle;Signal;HPM_P1;HPM_P2
2024/04/14 00:01:23;;;;;;;10.15;3.13;;;;;;;17.15;59.93;101898.94;5557054;25;20005;-69
2024/04/14 00:04:11;;;;;;;11.02;3.30;;;;;;;17.14;60.05;101896.47;5485603;25;20004;-69
2024/04/14 00:07:00;;;;;;;7.40;3.10;;;;;;;17.12;60.41;101901.44;5561545;25;20329;-71
2024/04/14 00:09:48;;;;;;;10.93;3.72;;;;;;;17.09;60.78;101899.25;5543973;25;20401;-69
2024/04/14 00:12:37;;;;;;;12.13;3.38;;;;;;;17.04;61.58;101900.94;5509887;25;20009;-69
2024/04/14 00:15:25;;;;;;;8.90;3.25;;;;;;;17.03;61.60;101899.31;5511785;25;20436;-69
2024/04/14 00:18:13;;;;;;;8.80;2.97;;;;;;;16.97;62.39;101900.44;5533251;25;20366;-69
2024/04/14 00:21:02;;;;;;;14.85;3.05;;;;;;;16.94;62.58;101902.94;5558386;25;20004;-69
2024/04/14 00:23:51;;;;;;;8.93;2.80;;;;;;;16.92;63.02;101908.72;5534989;25;20025;-69
2024/04/14 00:26:39;;;;;;;11.70;3.10;;;;;;;16.91;63.18;101901.59;5560300;25;20345;-68
2024/04/14 00:29:28;;;;;;;10.73;3.28;;;;;;;16.90;63.84;101896.34;5474011;25;20297;-68
2024/04/14 00:32:16;;;;;;;10.93;2.95;;;;;;;16.88;64.14;101902.13;5502874;25;19997;-68
2024/04/14 00:35:04;;;;;;;9.95;3.28;;;;;;;16.85;64.66;101908.22;5507160;25;20032;-69
2024/04/14 00:37:52;;;;;;;15.18;3.45;;;;;;;16.81;65.36;101907.13;5461143;25;20008;-70
2024/04/14 00:40:40;;;;;;;10.40;3.17;;;;;;;16.81;65.75;101902.47;5533553;25;20495;-68
2024/04/14 00:43:28;;;;;;;12.95;3.15;;;;;;;16.79;66.51;101901.91;5532856;25;20325;-69
2024/04/14 00:46:17;;;;;;;10.88;3.25;;;;;;;16.72;67.55;101897.81;5534105;25;19996;-68
2024/04/14 00:49:05;;;;;;;10.95;3.22;;;;;;;16.69;68.11;101901.94;5532793;25;20009;-68
2024/04/14 00:51:53;;;;;;;10.63;3.45;;;;;;;16.64;69.07;101906.63;5481984;25;20574;-69
2024/04/14 00:54:42;;;;;;;13.27;3.45;;;;;;;16.60;69.58;101900.88;5508766;25;20008;-68
2024/04/14 00:57:31;;;;;;;10.70;3.53;;;;;;;16.60;70.12;101903.63;5509483;25;20009;-68
2024/04/14 01:00:20;;;;;;;12.88;3.67;;;;;;;16.59;70.51;101905.53;5507428;25;20001;-68
2024/04/14 01:03:08;;;;;;;13.60;3.65;;;;;;;16.56;71.03;101908.88;5529239;25;20049;-68
2024/04/14 01:05:57;;;;;;;16.83;3.75;;;;;;;16.53;71.83;101916.88;5560591;25;20008;-68
2024/04/14 01:08:45;;;;;;;14.38;4.22;;;;;;;16.48;73.04;101919.66;5535469;25;20001;-68
2024/04/14 01:11:33;;;;;;;10.98;3.63;;;;;;;16.47;73.39;101923.50;5509319;25;20068;-68
2024/04/14 01:14:23;;;;;;;10.82;3.47;;;;;;;16.45;74.15;101929.28;5535099;25;19997;-70
2024/04/14 01:17:11;;;;;;;14.60;3.42;;;;;;;16.42;74.85;101923.50;5534966;25;20013;-69
2024/04/14 01:19:59;;;;;;;11.73;3.97;;;;;;;16.37;76.00;101932.59;5529049;25;20088;-69
2024/04/14 01:22:48;;;;;;;10.77;3.47;;;;;;;16.34;76.64;101930.41;5508115;25;20033;-70
2024/04/14 01:25:36;;;;;;;14.60;4.20;;;;;;;16.32;77.46;101930.69;5534138;25;20425;-70
2024/04/14 01:28:24;;;;;;;13.38;3.58;;;;;;;16.29;78.32;101927.69;5529082;25;20012;-69
2024/04/14 01:31:12;;;;;;;10.20;3.47;;;;;;;16.27;78.61;101929.88;5514097;25;20016;-69
2024/04/14 01:34:00;;;;;;;11.73;3.90;;;;;;;16.25;79.62;101929.34;5507636;25;20004;-69
2024/04/14 01:36:48;;;;;;;10.65;4.05;;;;;;;16.18;80.47;101927.69;5533055;25;20378;-69
2024/04/14 01:39:37;;;;;;;13.55;3.80;;;;;;;16.14;81.22;101934.88;5532217;25;20016;-69
2024/04/14 01:42:25;;;;;;;13.30;3.60;;;;;;;16.16;81.58;101940.91;5496651;26;20062;-70
2024/04/14 01:45:15;;;;;;;12.95;4.10;;;;;;;16.14;82.41;101945.88;5574052;25;20015;-69
2024/04/14 01:48:04;;;;;;;14.80;4.20;;;;;;;16.07;83.13;101948.09;5548281;25;20067;-69
2024/04/14 01:50:53;;;;;;;16.98;4.20;;;;;;;16.04;83.86;101948.63;5544912;25;20012;-68
2024/04/14 01:53:41;;;;;;;11.35;4.10;;;;;;;16.07;84.28;101944.50;5482764;25;20076;-69
2024/04/14 01:56:29;;;;;;;11.05;3.88;;;;;;;16.03;84.95;101957.97;5558272;25;20000;-69
2024/04/14 01:59:17;;;;;;;13.63;4.68;;;;;;;16.02;85.19;101950.84;5557781;25;20358;-70
2024/04/14 02:02:05;;;;;;;13.93;4.38;;;;;;;15.99;86.44;101948.63;5536176;25;20012;-69
2024/04/14 02:04:53;;;;;;;12.27;4.55;;;;;;;15.95;87.01;101953.06;5558803;25;20353;-69
2024/04/14 02:07:41;;;;;;;18.83;4.68;;;;;;;15.95;87.27;101955.81;5556961;25;20011;-69
2024/04/14 02:10:29;;;;;;;15.18;4.22;;;;;;;15.93;88.23;101963.50;5471260;25;20012;-70
2024/04/14 02:13:18;;;;;;;14.07;4.50;;;;;;;15.90;88.93;101958.56;5497047;26;20398;-70
2024/04/14 02:16:06;;;;;;;16.45;4.90;;;;;;;15.89;89.61;101965.13;5496268;26;20013;-69
2024/04/14 02:18:55;;;;;;;15.52;4.75;;;;;;;15.87;90.23;101959.09;5518519;26;20001;-68
2024/04/14 02:21:43;;;;;;;20.20;4.80;;;;;;;15.85;91.01;101972.28;5521481;25;19998;-68
2024/04/14 02:24:32;;;;;;;12.32;4.10;;;;;;;15.83;91.33;101960.75;5484760;26;20075;-69
2024/04/14 02:27:21;;;;;;;15.32;4.47;;;;;;;15.77;91.80;101963.47;5459882;26;20002;-70
2024/04/14 02:30:09;;;;;;;16.10;4.60;;;;;;;15.73;92.09;101965.16;5513807;26;20001;-69
2024/04/14 02:32:57;;;;;;;16.52;4.45;;;;;;;15.73;92.96;101965.16;5524299;25;19998;-70
2024/04/14 02:35:59;;;;;;;18.27;4.70;;;;;;;15.72;92.77;101960.75;5523232;26;20073;-69
2024/04/14 02:38:47;;;;;;;17.45;4.57;;;;;;;15.71;93.21;101967.34;5522175;26;20012;-69
2024/04/14 02:41:37;;;;;;;15.63;4.70;;;;;;;15.70;93.80;101964.88;5519786;26;20001;-68
2024/04/14 02:44:26;;;;;;;15.15;4.32;;;;;;;15.68;93.32;101973.38;5501089;26;20009;-68
2024/04/14 02:47:14;;;;;;;13.00;4.43;;;;;;;15.66;93.55;101969.25;5527065;26;20001;-69
2024/04/14 02:50:02;;;;;;;17.38;4.38;;;;;;;15.64;92.90;101972.25;5497816;26;19997;-72
2024/04/14 02:52:51;;;;;;;13.57;4.57;;;;;;;15.61;92.58;101967.31;5501605;25;19998;-71
2024/04/14 02:55:39;;;;;;;13.80;4.20;;;;;;;15.60;92.71;101978.56;5577572;25;20013;-67
2024/04/14 02:58:27;;;;;;;12.63;3.95;;;;;;;15.58;92.25;101981.59;5546029;25;19994;-71
2024/04/14 03:01:17;;;;;;;15.27;4.00;;;;;;;15.57;91.43;101974.44;5528378;26;20005;-69
2024/04/14 03:04:06;;;;;;;13.05;4.35;;;;;;;15.53;91.79;101981.56;5525958;25;20008;-72
2024/04/14 03:06:54;;;;;;;13.25;3.97;;;;;;;15.52;91.44;101979.94;5517643;25;20003;-71
2024/04/14 03:09:42;;;;;;;13.40;4.25;;;;;;;15.48;92.10;101973.34;5548796;25;20001;-69
2024/04/14 03:12:31;;;;;;;17.23;4.15;;;;;;;15.48;91.06;101973.34;5561722;25;20005;-69
2024/04/14 03:15:19;;;;;;;11.90;3.85;;;;;;;15.43;91.11;101976.91;5536172;25;20311;-69
2024/04/14 03:18:07;;;;;;;14.35;3.97;;;;;;;15.40;91.56;101985.69;5524701;25;20077;-70
2024/04/14 03:21:03;;;;;;;13.95;3.88;;;;;;;15.41;91.02;101994.75;5534424;25;20068;-69
2024/04/14 03:23:51;;;;;;;13.07;3.75;;;;;;;15.37;90.91;101994.47;5534973;25;19997;-69
2024/04/14 03:26:39;;;;;;;14.00;3.83;;;;;;;15.36;90.10;102002.97;5563583;25;20033;-69
2024/04/14 03:29:28;;;;;;;13.93;4.13;;;;;;;15.31;88.95;102001.88;5562209;25;20003;-70
2024/04/14 03:32:16;;;;;;;11.55;3.78;;;;;;;15.28;88.97;102013.41;5530058;25;20012;-70
2024/04/14 03:35:04;;;;;;;14.02;3.58;;;;;;;15.24;88.28;102012.28;5561206;25;20025;-69
2024/04/14 03:37:52;;;;;;;12.98;3.97;;;;;;;15.19;88.03;102012.28;5513793;25;20000;-69
2024/04/14 03:40:40;;;;;;;10.60;3.53;;;;;;;15.19;87.96;102006.78;5563300;25;20029;-69
2024/04/14 03:43:29;;;;;;;11.50;3.75;;;;;;;15.19;87.92;102006.78;5528467;25;20000;-69
2024/04/14 03:46:17;;;;;;;13.52;3.85;;;;;;;15.17;88.21;102006.22;5485252;25;20443;-68
2024/04/14 03:49:05;;;;;;;11.38;3.50;;;;;;;15.18;88.08;102013.38;5487316;25;20340;-69
2024/04/14 03:51:54;;;;;;;12.77;3.60;;;;;;;15.12;87.85;102015.25;5510001;25;20385;-69
2024/04/14 03:54:43;;;;;;;15.95;4.20;;;;;;;15.06;87.88;102012.78;5559148;25;20001;-70
2024/04/14 03:57:31;;;;;;;15.88;3.80;;;;;;;15.04;87.83;102009.47;5509732;25;20011;-69
2024/04/14 04:00:19;;;;;;;10.15;3.28;;;;;;;15.01;86.01;102018.22;5562494;25;19997;-70
2024/04/14 04:03:08;;;;;;;10.18;3.00;;;;;;;14.98;85.57;102013.28;5535482;25;20019;-70
2024/04/14 04:05:56;;;;;;;13.15;3.53;;;;;;;14.93;84.79;102016.00;5487275;26;20021;-69
2024/04/14 04:08:47;;;;;;;12.88;3.00;;;;;;;14.87;85.32;102017.94;5491063;26;20030;-69
2024/04/14 04:11:35;;;;;;;13.40;3.55;;;;;;;14.87;85.28;102018.75;5488383;25;19997;-69
2024/04/14 04:14:24;;;;;;;10.90;3.25;;;;;;;14.87;84.92;102026.97;5492155;25;20137;-70
2024/04/14 04:17:14;;;;;;;12.90;3.25;;;;;;;14.83;85.12;102030.50;5487628;26;20006;-68
2024/04/14 04:20:04;;;;;;;10.88;2.85;;;;;;;14.80;85.04;102026.38;5488704;26;20012;-71
2024/04/14 04:22:52;;;;;;;14.63;3.63;;;;;;;14.76;83.83;102036.25;5522142;25;20342;-68
2024/04/14 04:25:40;;;;;;;12.95;3.50;;;;;;;14.70;84.97;102042.81;5522611;25;20046;-70
2024/04/14 04:28:29;;;;;;;13.35;3.15;;;;;;;14.68;85.00;102042.25;5524344;26;20001;-69
2024/04/14 04:31:17;;;;;;;12.00;3.47;;;;;;;14.67;84.19;102041.44;5524195;26;20077;-69
2024/04/14 04:34:05;;;;;;;14.55;3.75;;;;;;;14.63;84.50;102044.97;5522953;26;20337;-69
2024/04/14 04:36:54;;;;;;;10.50;3.10;;;;;;;14.64;84.38;102046.59;5521540;26;20005;-71
2024/04/14 04:39:43;;;;;;;11.95;3.45;;;;;;;14.59;83.95;102052.88;5522101;26;20001;-69
2024/04/14 04:42:32;;;;;;;9.55;2.97;;;;;;;14.54;84.34;102049.28;5503533;25;20348;-70
2024/04/14 04:45:21;;;;;;;10.98;3.38;;;;;;;14.50;84.69;102057.16;5541664;25;19994;-70
2024/04/14 04:48:09;;;;;;;10.95;2.95;;;;;;;14.47;84.50;102061.25;5497420;26;20291;-70
2024/04/14 04:50:58;;;;;;;16.38;4.00;;;;;;;14.46;85.01;102067.03;5462194;26;19998;-69
2024/04/14 04:53:46;;;;;;;12.27;3.45;;;;;;;14.42;85.10;102066.72;5507100;25;20433;-70
2024/04/14 04:56:34;;;;;;;12.73;3.10;;;;;;;14.41;85.98;102064.25;5499651;26;20029;-68
2024/04/14 04:59:22;;;;;;;12.15;3.25;;;;;;;14.42;85.77;102060.41;5524518;26;20002;-69
2024/04/14 05:02:10;;;;;;;11.45;3.08;;;;;;;14.43;85.66;102075.78;5524148;26;20005;-70
2024/04/14 05:04:58;;;;;;;11.32;3.17;;;;;;;14.42;86.02;102071.38;5493406;25;20001;-69
2024/04/14 05:07:46;;;;;;;15.75;4.00;;;;;;;14.41;85.73;102065.09;5484997;25;20008;-70
2024/04/14 05:10:34;;;;;;;11.48;3.00;;;;;;;14.34;86.71;102075.44;5483975;25;20015;-70
2024/04/14 05:13:26;;;;;;;10.20;3.22;;;;;;;14.35;86.44;102081.75;5536070;25;20008;-70
2024/04/14 05:16:14;;;;;;;13.27;3.35;;;;;;;14.36;86.31;102084.25;5486807;26;20513;-68
2024/04/14 05:19:02;;;;;;;11.30;3.00;;;;;;;14.32;85.75;102094.06;5487219;26;19998;-68
2024/04/14 05:21:50;;;;;;;12.18;3.17;;;;;;;14.28;86.18;102099.22;5460030;26;20014;-71
2024/04/14 05:24:39;;;;;;;8.90;2.95;;;;;;;14.26;85.98;102095.09;5467226;25;20010;-70
2024/04/14 05:27:27;;;;;;;14.52;3.28;;;;;;;14.27;84.93;102091.28;5470597;26;20018;-69
2024/04/14 05:30:15;;;;;;;13.48;3.20;;;;;;;14.27;84.86;102096.78;5460075;26;19999;-70
2024/04/14 05:33:03;;;;;;;17.45;3.75;;;;;;;14.22;85.13;102096.75;5460247;26;20002;-70
2024/04/14 05:35:56;;;;;;;14.15;3.47;;;;;;;14.15;83.82;102099.69;5500767;25;20008;-70
2024/04/14 05:38:47;;;;;;;11.85;3.03;;;;;;;14.06;84.15;102107.53;5474324;26;20358;-70
2024/04/14 05:41:35;;;;;;;15.57;3.40;;;;;;;14.00;83.68;102114.09;5522993;26;19997;-71
2024/04/14 05:44:24;;;;;;;12.02;3.13;;;;;;;13.98;83.62;102115.44;5462843;25;20350;-70
2024/04/14 05:47:12;;;;;;;17.63;3.78;;;;;;;13.90;83.22;102119.44;5485987;25;19993;-72
2024/04/14 05:50:00;;;;;;;14.65;3.25;;;;;;;13.92;83.13;102110.97;5462260;26;20385;-71
2024/04/14 05:52:49;;;;;;;9.95;2.70;;;;;;;13.97;83.08;102117.31;5461233;26;20023;-71
2024/04/14 05:55:37;;;;;;;14.90;3.38;;;;;;;13.99;82.57;102111.59;5488816;25;20446;-71
2024/04/14 05:58:25;;;;;;;12.90;3.17;;;;;;;14.01;82.93;102115.72;5461379;26;20009;-71
2024/04/14 06:01:14;;;;;;;9.65;2.72;;;;;;;14.01;82.29;102126.69;4705007;25;9999897;-71
2024/04/14 06:04:02;;;;;;;11.98;3.30;;;;;;;13.98;82.89;102121.72;5542315;25;19992;-71
2024/04/14 06:06:50;;;;;;;13.88;3.20;;;;;;;13.94;82.19;102117.84;5490381;25;19997;-70
2024/04/14 06:09:38;;;;;;;14.48;3.15;;;;;;;13.95;82.30;102125.00;5489566;25;20039;-69
2024/04/14 06:12:27;;;;;;;15.60;3.42;;;;;;;13.97;81.92;102114.56;5526802;25;20007;-69
2024/04/14 06:15:15;;;;;;;16.17;3.75;;;;;;;13.90;81.97;102127.66;5514142;26;20037;-70
2024/04/14 06:18:04;;;;;;;13.18;3.38;;;;;;;13.79;81.09;102140.44;5467023;26;20002;-70
2024/04/14 06:20:53;;;;;;;13.63;3.78;;;;;;;13.72;79.43;102136.25;5490848;25;20008;-71
2024/04/14 06:23:42;;;;;;;12.15;3.20;;;;;;;13.63;78.41;102131.22;5491247;26;20002;-69
2024/04/14 06:26:30;;;;;;;12.70;3.33;;;;;;;13.67;77.71;102136.19;5490433;25;20077;-69
2024/04/14 06:29:18;;;;;;;14.82;3.35;;;;;;;13.76;77.78;102129.19;5518171;26;20013;-70
2024/04/14 06:32:07;;;;;;;12.95;3.33;;;;;;;13.83;76.90;102130.63;5486773;26;20342;-71
2024/04/14 06:34:55;;;;;;;15.10;3.70;;;;;;;13.89;76.88;102127.94;5468811;25;20002;-69
2024/04/14 06:37:43;;;;;;;13.50;3.03;;;;;;;13.87;76.22;102136.41;5492557;26;20462;-70
2024/04/14 06:40:31;;;;;;;12.10;3.08;;;;;;;13.82;76.85;102128.97;5473712;26;20001;-69
2024/04/14 06:43:19;;;;;;;14.38;3.45;;;;;;;13.80;75.16;102142.06;5492291;26;20001;-70
2024/04/14 06:46:09;;;;;;;14.68;3.08;;;;;;;13.70;72.54;102141.97;5519625;25;19997;-70
2024/04/14 06:48:58;;;;;;;13.35;2.95;;;;;;;13.68;72.28;102140.56;5488929;25;20426;-70
2024/04/14 06:51:46;;;;;;;15.10;3.63;;;;;;;13.67;71.64;102150.72;5499070;25;20068;-69
2024/04/14 06:54:34;;;;;;;10.68;3.10;;;;;;;13.63;71.64;102163.25;5555232;25;20005;-70
2024/04/14 06:57:22;;;;;;;11.18;2.90;;;;;;;13.62;72.01;102158.88;5497624;26;19998;-71
2024/04/14 07:00:11;;;;;;;9.63;2.97;;;;;;;13.63;70.98;102161.34;5518711;26;20001;-71
2024/04/14 07:02:59;;;;;;;12.85;3.20;;;;;;;13.61;70.87;102160.78;5525480;25;20076;-70
2024/04/14 07:05:47;;;;;;;10.43;2.92;;;;;;;13.62;71.00;102146.00;5541381;25;19994;-73
2024/04/14 07:08:35;;;;;;;10.77;2.70;;;;;;;13.69;71.08;102155.94;5505190;26;20135;-71
2024/04/14 07:11:24;;;;;;;10.32;2.75;;;;;;;13.78;69.93;102154.38;5518565;25;20074;-70
2024/04/14 07:14:13;;;;;;;11.00;2.80;;;;;;;13.81;68.94;102160.19;5533583;26;20034;-72
2024/04/14 07:17:02;;;;;;;14.57;2.95;;;;;;;13.81;68.10;102157.44;5538359;26;20033;-68
2024/04/14 07:19:50;;;;;;;9.80;2.70;;;;;;;13.77;68.60;102163.69;5538446;26;19997;-69
2024/04/14 07:22:38;;;;;;;11.98;3.10;;;;;;;13.75;67.98;102176.81;5486530;26;19998;-69
2024/04/14 07:25:26;;;;;;;9.38;3.00;;;;;;;13.61;67.77;102170.88;5496399;26;20437;-69
2024/04/14 07:28:14;;;;;;;9.75;2.83;;;;;;;13.63;68.68;102166.81;5527425;25;20006;-68
2024/04/14 07:31:02;;;;;;;27.48;5.47;;;;;;;13.75;74.45;102152.16;5521149;26;20016;-69
2024/04/14 07:34:00;;;;;;;11.75;2.80;;;;;;;13.80;68.07;102165.91;5524466;26;19997;-68
2024/04/14 07:36:48;;;;;;;12.32;2.85;;;;;;;13.77;67.63;102169.19;5525537;26;19998;-70
2024/04/14 07:39:36;;;;;;;11.20;3.08;;;;;;;13.71;67.76;102175.66;5524211;26;20001;-69
2024/04/14 07:42:24;;;;;;;13.07;3.05;;;;;;;13.63;68.55;102171.47;5522961;26;20108;-69
2024/04/14 07:45:13;;;;;;;8.70;3.05;;;;;;;13.70;69.27;102172.09;5497996;26;20017;-69
2024/04/14 07:48:01;;;;;;;11.68;2.85;;;;;;;13.79;69.74;102180.72;5499728;26;20001;-68
2024/04/14 07:50:49;;;;;;;15.18;3.58;;;;;;;13.88;69.92;102186.53;5525261;26;20006;-68
2024/04/14 07:53:37;;;;;;;11.30;2.97;;;;;;;13.90;70.07;102184.38;5499418;26;20039;-69
2024/04/14 07:56:25;;;;;;;10.63;3.13;;;;;;;13.87;70.09;102190.38;5524747;26;20009;-68
2024/04/14 07:59:13;;;;;;;13.32;3.10;;;;;;;13.85;68.04;102183.25;5472467;26;20025;-69
2024/04/14 08:02:02;;;;;;;11.15;3.08;;;;;;;13.80;67.57;102190.56;5472281;26;20001;-69
2024/04/14 08:04:50;;;;;;;14.65;3.30;;;;;;;13.80;67.43;102191.38;5473665;26;19997;-69
2024/04/14 08:07:38;;;;;;;11.77;3.17;;;;;;;13.84;66.19;102186.25;5499529;26;20420;-69
2024/04/14 08:10:26;;;;;;;8.32;2.50;;;;;;;13.87;65.23;102196.69;5501155;26;20002;-68
2024/04/14 08:13:14;;;;;;;11.50;3.08;;;;;;;13.81;65.08;102197.72;5510174;25;19992;-69
2024/04/14 08:16:03;;;;;;;9.80;2.72;;;;;;;13.73;63.24;102198.97;5508617;25;19999;-69
2024/04/14 08:18:51;;;;;;;13.32;3.47;;;;;;;13.73;64.62;102198.16;5534228;25;19997;-69
2024/04/14 08:21:39;;;;;;;11.18;3.22;;;;;;;13.74;63.95;102205.31;5509703;25;20447;-70
2024/04/14 08:24:27;;;;;;;12.60;3.15;;;;;;;13.80;64.71;102202.34;5536817;25;20015;-69
2024/04/14 08:27:15;;;;;;;8.77;2.80;;;;;;;13.82;62.56;102204.84;5539539;25;20017;-69
2024/04/14 08:30:04;;;;;;;13.32;3.05;;;;;;;13.83;62.64;102198.28;5535015;25;20008;-69
2024/04/14 08:32:52;;;;;;;9.95;3.00;;;;;;;13.81;59.28;102187.59;5459694;25;20015;-68
2024/04/14 08:35:40;;;;;;;9.07;2.33;;;;;;;13.87;57.99;102191.19;5508795;25;20331;-68
2024/04/14 08:38:29;;;;;;;6.97;2.30;;;;;;;13.90;56.34;102190.69;5509019;25;20015;-68
2024/04/14 08:41:18;;;;;;;9.73;2.63;;;;;;;13.91;53.51;102203.31;5532626;25;20011;-69
2024/04/14 08:44:06;;;;;;;9.90;2.85;;;;;;;13.88;54.45;102201.09;5508612;25;20029;-69
2024/04/14 08:46:54;;;;;;;12.13;2.80;;;;;;;13.85;56.66;102209.81;5534851;25;20008;-70
2024/04/14 08:49:43;;;;;;;13.43;2.83;;;;;;;13.85;57.69;102205.19;5509346;25;20001;-69
2024/04/14 08:52:33;;;;;;;10.80;2.80;;;;;;;13.97;59.04;102205.00;5509392;25;20094;-69
2024/04/14 08:55:22;;;;;;;8.10;2.53;;;;;;;14.04;60.35;102197.41;5536976;25;20012;-68
2024/04/14 08:58:10;;;;;;;13.38;2.92;;;;;;;14.04;60.33;102191.94;5512429;25;20340;-69
2024/04/14 09:01:02;;;;;;;12.60;3.08;;;;;;;14.11;59.78;102191.72;5537065;25;20041;-68
2024/04/14 09:03:52;;;;;;;10.85;3.00;;;;;;;14.18;60.00;102199.75;5509409;25;20457;-69
2024/04/14 09:06:42;;;;;;;7.38;2.58;;;;;;;14.28;60.04;102192.44;5560544;25;20352;-68
2024/04/14 09:09:30;;;;;;;14.35;3.03;;;;;;;14.33;59.75;102199.91;5484497;25;20009;-70
2024/04/14 09:12:18;;;;;;;13.00;3.30;;;;;;;14.31;60.48;102202.09;5535865;25;19997;-70
2024/04/14 09:15:08;;;;;;;9.73;2.55;;;;;;;14.31;60.90;102207.59;5534141;25;20006;-69
2024/04/14 09:17:56;;;;;;;10.18;3.03;;;;;;;14.28;60.20;102210.81;5523492;26;20013;-69
2024/04/14 09:20:44;;;;;;;11.73;2.95;;;;;;;14.26;61.21;102211.09;5448861;26;19998;-69
2024/04/14 09:23:32;;;;;;;10.70;3.10;;;;;;;14.30;62.31;102214.13;5548786;25;20016;-69
2024/04/14 09:26:25;;;;;;;12.02;3.20;;;;;;;14.29;62.21;102215.25;5472560;26;20030;-68
2024/04/14 09:29:15;;;;;;;11.43;2.97;;;;;;;14.26;62.30;102210.25;5550092;25;19997;-69
2024/04/14 09:32:04;;;;;;;8.02;2.60;;;;;;;14.23;61.92;102219.00;5510001;25;20421;-69
2024/04/14 09:34:52;;;;;;;10.02;3.00;;;;;;;14.18;61.04;102203.31;5559293;25;20064;-69
2024/04/14 09:37:41;;;;;;;12.48;2.97;;;;;;;14.23;62.63;102208.03;5560533;25;20001;-69
2024/04/14 09:40:31;;;;;;;12.30;2.92;;;;;;;14.22;60.41;102212.69;5557562;25;20004;-70
2024/04/14 09:43:20;;;;;;;12.55;3.13;;;;;;;14.26;59.59;102216.59;5559255;25;20072;-69
2024/04/14 09:46:09;;;;;;;12.48;2.80;;;;;;;14.32;58.88;102220.19;5507658;25;20012;-68
2024/04/14 09:48:57;;;;;;;12.93;3.28;;;;;;;14.33;57.13;102227.31;5509938;25;19997;-68
2024/04/14 09:51:46;;;;;;;8.02;2.70;;;;;;;14.28;57.40;102219.03;5506214;25;20072;-69
2024/04/14 09:54:35;;;;;;;11.15;3.20;;;;;;;14.27;58.21;102218.22;5500989;25;20080;-68
2024/04/14 09:57:23;;;;;;;12.63;3.20;;;;;;;14.34;57.53;102222.69;5532203;25;20004;-70
2024/04/14 10:00:12;;;;;;;9.85;2.60;;;;;;;14.35;55.06;102219.66;5507942;25;20072;-69
2024/04/14 10:03:04;;;;;;;8.02;2.42;;;;;;;14.31;51.29;102226.78;5515952;25;20039;-68
2024/04/14 10:05:53;;;;;;;8.02;2.38;;;;;;;14.25;52.14;102230.53;5533730;25;20011;-68
2024/04/14 10:08:41;;;;;;;9.55;3.00;;;;;;;14.27;52.98;102214.66;5509419;25;20040;-68
2024/04/14 10:11:31;;;;;;;12.90;2.85;;;;;;;14.38;54.79;102221.91;5540455;25;20026;-68
2024/04/14 10:14:24;;;;;;;10.73;2.70;;;;;;;14.39;57.15;102223.56;5555015;25;19993;-69
2024/04/14 10:17:12;;;;;;;10.50;3.38;;;;;;;14.24;57.46;102223.41;5580622;25;20004;-69
2024/04/14 10:20:03;;;;;;;15.02;3.42;;;;;;;14.26;57.80;102224.81;5547160;25;20001;-68
2024/04/14 10:22:51;;;;;;;8.93;2.83;;;;;;;14.34;55.81;102223.50;5545318;25;19997;-68
2024/04/14 10:25:46;;;;;;;9.68;2.53;;;;;;;14.33;54.33;102221.84;5514926;25;20439;-69
2024/04/14 10:28:34;;;;;;;8.60;2.67;;;;;;;14.36;54.09;102224.09;5539065;25;20016;-69
2024/04/14 10:31:28;;;;;;;9.40;2.88;;;;;;;14.41;54.26;102232.34;5574901;25;20000;-69
2024/04/14 10:34:23;;;;;;;14.23;2.70;;;;;;;14.43;54.12;102232.94;5570646;25;20000;-68
2024/04/14 10:37:25;;;;;;;10.90;2.55;;;;;;;14.40;51.22;102233.44;5568233;25;19996;-69
2024/04/14 10:40:13;;;;;;;9.02;2.97;;;;;;;14.43;50.42;102230.19;5543304;25;20071;-69
2024/04/14 10:43:03;;;;;;;7.85;2.58;;;;;;;14.42;50.51;102236.75;5569482;25;20000;-69
2024/04/14 10:45:52;;;;;;;9.35;2.58;;;;;;;14.46;51.25;102229.66;5446879;26;20009;-68
2024/04/14 10:48:44;;;;;;;10.80;3.10;;;;;;;14.48;51.53;102230.22;5473095;26;20034;-69
2024/04/14 10:51:32;;;;;;;10.48;2.60;;;;;;;14.53;51.45;102239.56;5522272;26;20054;-68
2024/04/14 10:54:21;;;;;;;10.35;2.50;;;;;;;14.51;51.93;102222.56;5471675;26;20349;-69
2024/04/14 10:57:09;;;;;;;8.40;2.65;;;;;;;14.53;53.24;102231.34;5497061;25;19993;-69
2024/04/14 10:59:58;;;;;;;11.02;2.88;;;;;;;14.46;52.62;102226.91;5504313;25;20015;-68
2024/04/14 11:02:47;;;;;;;12.10;3.20;;;;;;;14.40;52.56;102221.63;5525116;25;20445;-68
2024/04/14 11:05:40;;;;;;;8.48;2.63;;;;;;;14.42;53.10;102220.28;5555939;25;20076;-69
2024/04/14 11:08:28;;;;;;;6.82;2.60;;;;;;;14.46;53.10;102204.97;5513521;25;20100;-69
2024/04/14 11:11:16;;;;;;;8.88;2.80;;;;;;;14.60;53.66;102204.56;5552574;25;20001;-70
2024/04/14 11:14:05;;;;;;;12.55;3.28;;;;;;;14.62;52.30;102207.88;5550854;25;20011;-69
2024/04/14 11:16:53;;;;;;;11.45;3.03;;;;;;;14.66;52.95;102211.75;5547859;25;20433;-70
2024/04/14 11:19:41;;;;;;;9.30;2.78;;;;;;;14.66;52.12;102206.28;5516005;25;20127;-71
2024/04/14 11:22:32;;;;;;;11.40;3.00;;;;;;;14.76;53.46;102197.28;5499359;25;20009;-71
2024/04/14 11:25:21;;;;;;;8.63;2.60;;;;;;;14.79;51.63;102197.63;5500315;25;20001;-68
2024/04/14 11:28:10;;;;;;;10.80;2.80;;;;;;;14.74;51.95;102191.25;5525025;25;19997;-70
2024/04/14 11:30:58;;;;;;;11.35;2.80;;;;;;;14.73;50.69;102181.38;5487031;25;20087;-70
2024/04/14 11:33:53;;;;;;;7.90;2.50;;;;;;;14.78;51.46;102184.97;5510422;25;20008;-70
2024/04/14 11:36:43;;;;;;;11.98;3.58;;;;;;;14.88;52.13;102178.72;5558551;25;20000;-69
2024/04/14 11:39:32;;;;;;;10.27;3.05;;;;;;;14.93;51.88;102183.44;5506331;25;20000;-69
2024/04/14 11:42:20;;;;;;;12.50;3.28;;;;;;;14.81;51.24;102198.16;5521549;25;20050;-69
2024/04/14 11:45:11;;;;;;;8.63;2.80;;;;;;;14.73;52.27;102173.97;5508247;25;20010;-70
2024/04/14 11:47:59;;;;;;;10.30;2.70;;;;;;;14.71;52.17;102159.66;5521239;26;20050;-71
2024/04/14 11:50:48;;;;;;;10.60;3.05;;;;;;;14.63;52.51;102160.16;5493979;26;19998;-69
2024/04/14 11:53:37;;;;;;;7.53;2.72;;;;;;;14.65;51.84;102171.72;5530472;25;20001;-69
2024/04/14 11:56:25;;;;;;;11.55;3.13;;;;;;;14.66;52.24;102165.94;5523533;26;19997;-71
2024/04/14 11:59:13;;;;;;;8.63;2.83;;;;;;;14.73;52.44;102165.72;5546015;25;20010;-71
2024/04/14 12:02:01;;;;;;;7.57;2.13;;;;;;;14.80;51.56;102166.31;5493623;26;20376;-70
2024/04/14 12:04:53;;;;;;;11.98;2.53;;;;;;;14.83;51.36;102159.47;5152557;25;10000998;-71
2024/04/14 12:07:41;;;;;;;9.10;2.80;;;;;;;14.87;51.41;102177.91;5503657;25;19997;-70
2024/04/14 12:10:30;;;;;;;9.15;2.63;;;;;;;14.94;50.00;102168.63;5508979;25;20076;-70
2024/04/14 12:13:18;;;;;;;8.43;2.63;;;;;;;14.97;49.12;102166.16;5504738;25;19996;-70
2024/04/14 12:16:07;;;;;;;10.00;2.55;;;;;;;14.98;50.41;102161.50;5556156;25;20012;-69
2024/04/14 12:18:55;;;;;;;7.80;2.80;;;;;;;15.12;51.18;102159.94;5503089;25;20005;-69
2024/04/14 12:21:44;;;;;;;10.05;2.72;;;;;;;15.17;49.53;102159.97;5554474;25;20010;-71
2024/04/14 12:24:32;;;;;;;12.13;3.22;;;;;;;15.05;48.97;102159.34;5531187;25;20398;-70
2024/04/14 12:27:20;;;;;;;8.77;2.50;;;;;;;15.05;51.80;102153.84;5483458;25;20033;-69
2024/04/14 12:30:08;;;;;;;8.65;2.72;;;;;;;15.05;49.44;102157.41;5534931;25;19997;-69
2024/04/14 12:32:58;;;;;;;11.98;3.10;;;;;;;15.11;49.46;102152.81;5511092;25;20469;-69
2024/04/14 12:35:46;;;;;;;10.95;3.05;;;;;;;15.05;48.55;102146.44;5509798;25;20463;-69
2024/04/14 12:38:34;;;;;;;10.95;3.22;;;;;;;14.97;48.91;102138.72;5534451;25;20008;-69
2024/04/14 12:41:23;;;;;;;11.88;3.05;;;;;;;15.01;50.63;102128.03;5534303;25;20072;-69
2024/04/14 12:44:11;;;;;;;9.85;2.97;;;;;;;15.06;48.89;102126.16;5510493;25;20005;-69
2024/04/14 12:47:00;;;;;;;11.38;3.33;;;;;;;15.09;48.59;102131.09;5510080;25;20036;-70
2024/04/14 12:49:50;;;;;;;10.93;3.05;;;;;;;15.12;49.83;102125.06;5560418;25;20001;-69
2024/04/14 12:52:38;;;;;;;8.80;2.63;;;;;;;15.13;50.12;102136.91;5534944;25;20068;-69
2024/04/14 12:55:26;;;;;;;11.02;3.28;;;;;;;15.11;50.11;102122.59;5559729;25;20011;-70
2024/04/14 12:58:14;;;;;;;9.70;3.30;;;;;;;15.10;50.41;102108.06;5560526;25;20016;-69